createdAt,value
2022-08-02T00:00:28.557Z,18.20
2022-08-02T00:02:55.760Z,18.20
2022-08-02T00:05:23.493Z,18.20
2022-08-02T00:07:50.758Z,18.10
2022-08-02T00:10:17.887Z,17.90
2022-08-02T00:12:45.012Z,17.80
2022-08-02T00:15:15.962Z,18.00
2022-08-02T00:17:44.647Z,17.80
2022-08-02T00:20:13.745Z,17.70
2022-08-02T00:22:40.866Z,17.80
2022-08-02T00:25:08.493Z,17.70
2022-08-02T00:27:35.769Z,17.70
2022-08-02T00:30:02.958Z,17.50
2022-08-02T00:32:31.917Z,17.90
2022-08-02T00:34:59.073Z,17.90
2022-08-02T00:37:26.523Z,17.80
2022-08-02T00:39:53.793Z,17.80
2022-08-02T00:42:20.940Z,17.50
2022-08-02T00:44:48.045Z,17.70
2022-08-02T00:47:19.053Z,18.00
2022-08-02T00:49:47.292Z,18.50
2022-08-02T00:52:14.856Z,18.10
2022-08-02T00:54:43.674Z,18.20
2022-08-02T00:57:10.770Z,18.20
2022-08-02T00:59:38.002Z,18.10
2022-08-02T01:02:05.705Z,18.10
2022-08-02T01:04:33.079Z,17.90
2022-08-02T01:07:01.675Z,17.90
2022-08-02T01:09:29.233Z,17.90
2022-08-02T01:11:56.416Z,17.70
2022-08-02T01:14:25.383Z,17.60
2022-08-02T01:17:09.585Z,17.40
2022-08-02T01:19:46.064Z,17.10
2022-08-02T01:23:00.128Z,16.90
2022-08-02T01:25:52.435Z,16.90
2022-08-02T01:28:43.582Z,17.00
2022-08-02T01:31:22.316Z,16.90
2022-08-02T01:33:54.876Z,16.80
2022-08-02T01:36:24.079Z,16.70
2022-08-02T01:38:53.618Z,16.60
2022-08-02T01:41:24.166Z,16.80
2022-08-02T01:43:55.715Z,16.70
2022-08-02T01:46:24.654Z,16.70
2022-08-02T01:48:54.768Z,16.60
2022-08-02T01:51:41.511Z,16.60
2022-08-02T01:54:15.792Z,16.70
2022-08-02T01:56:44.759Z,16.80
2022-08-02T01:59:14.940Z,16.80
2022-08-02T02:01:43.112Z,16.80
2022-08-02T02:04:10.782Z,16.80
2022-08-02T02:06:39.231Z,16.90
2022-08-02T02:09:06.792Z,16.90
2022-08-02T02:12:08.683Z,16.90
2022-08-02T02:14:23.095Z,16.90
2022-08-02T02:16:50.559Z,16.80
2022-08-02T02:19:21.303Z,16.90
2022-08-02T02:21:50.052Z,17.00
2022-08-02T02:24:17.957Z,17.30
2022-08-02T02:26:52.141Z,17.40
2022-08-02T02:29:25.329Z,17.30
2022-08-02T02:31:55.444Z,17.40
2022-08-02T02:34:33.784Z,17.70
2022-08-02T02:37:04.892Z,17.70
2022-08-02T02:39:33.761Z,17.80
2022-08-02T02:42:03.980Z,18.20
2022-08-02T02:44:33.556Z,18.10
2022-08-02T02:47:02.173Z,18.00
2022-08-02T02:49:35.369Z,17.90
2022-08-02T02:52:05.612Z,17.90
2022-08-02T02:54:35.361Z,18.00
2022-08-02T02:57:04.697Z,18.20
2022-08-02T02:59:35.982Z,18.20
2022-08-02T03:02:04.912Z,18.30
2022-08-02T03:04:35.960Z,18.30
2022-08-02T03:07:21.435Z,18.10
2022-08-02T03:09:54.144Z,18.30
2022-08-02T03:12:28.722Z,18.40
2022-08-02T03:15:06.498Z,18.60
2022-08-02T03:17:46.731Z,18.50
2022-08-02T03:20:17.025Z,18.70
2022-08-02T03:22:45.033Z,18.70
2022-08-02T03:25:13.218Z,18.40
2022-08-02T03:27:41.433Z,18.50
2022-08-02T03:30:10.885Z,18.50
2022-08-02T03:32:41.845Z,18.60
2022-08-02T03:35:16.595Z,18.70
2022-08-02T03:37:46.123Z,19.00
2022-08-02T03:40:13.973Z,19.00
2022-08-02T03:42:42.026Z,19.30
2022-08-02T03:45:12.497Z,19.20
2022-08-02T03:47:40.501Z,19.50
2022-08-02T03:50:12.614Z,19.80
2022-08-02T03:52:45.494Z,19.70
2022-08-02T03:55:13.711Z,19.60
2022-08-02T03:57:42.942Z,19.70
2022-08-02T04:00:12.445Z,19.90
2022-08-02T04:02:40.242Z,20.10
2022-08-02T04:05:07.824Z,20.30
2022-08-02T04:08:34.266Z,20.10
2022-08-02T04:10:22.356Z,19.80
2022-08-02T04:12:49.756Z,20.00
2022-08-02T04:15:17.442Z,20.00
2022-08-02T04:17:51.444Z,20.10
2022-08-02T04:20:22.952Z,19.90
2022-08-02T04:22:55.309Z,20.20
2022-08-02T04:25:34.441Z,20.00
2022-08-02T04:28:16.636Z,20.40
2022-08-02T04:30:45.873Z,20.50
2022-08-02T04:33:13.818Z,20.80
2022-08-02T04:35:45.468Z,21.20
2022-08-02T04:38:16.018Z,21.60
2022-08-02T04:40:54.717Z,21.20
2022-08-02T04:43:23.055Z,21.60
2022-08-02T04:45:52.938Z,21.70
2022-08-02T04:48:21.336Z,22.30
2022-08-02T04:50:48.740Z,22.00
2022-08-02T04:53:16.092Z,21.80
2022-08-02T04:55:43.371Z,21.70
2022-08-02T04:58:38.154Z,22.10
2022-08-02T05:00:58.101Z,22.40
2022-08-02T05:03:25.460Z,22.30
2022-08-02T05:05:52.645Z,21.90
2022-08-02T05:08:20.293Z,21.80
2022-08-02T05:10:47.677Z,21.40
2022-08-02T05:13:14.846Z,21.30
2022-08-02T05:15:41.978Z,21.50
2022-08-02T05:18:09.462Z,21.60
2022-08-02T05:20:37.097Z,22.00
2022-08-02T05:23:04.300Z,22.10
2022-08-02T05:25:31.554Z,20.90
2022-08-02T05:27:59.139Z,21.70
2022-08-02T05:30:26.387Z,21.70
2022-08-02T05:32:53.538Z,21.60
2022-08-02T05:35:22.526Z,21.50
2022-08-02T05:37:51.386Z,21.80
2022-08-02T05:40:25.662Z,21.70
2022-08-02T05:42:53.955Z,21.50
2022-08-02T05:45:21.306Z,21.60
2022-08-02T05:47:48.560Z,21.60
2022-08-02T05:50:15.919Z,21.60
2022-08-02T05:52:49.015Z,21.60
2022-08-02T05:55:17.587Z,21.90
2022-08-02T05:58:06.265Z,21.70
2022-08-02T06:00:36.619Z,21.60
2022-08-02T06:03:10.029Z,21.90
2022-08-02T06:09:01.097Z,21.80
2022-08-02T06:11:36.914Z,21.90
2022-08-02T06:14:08.151Z,22.30
2022-08-02T06:16:37.652Z,22.10
2022-08-02T06:19:09.462Z,22.40
2022-08-02T06:22:33.089Z,22.40
2022-08-02T06:24:26.985Z,22.90
2022-08-02T06:26:56.576Z,22.70
2022-08-02T06:29:24.925Z,22.90
2022-08-02T06:31:54.301Z,22.80
2022-08-02T06:34:21.440Z,22.70
2022-08-02T06:37:11.724Z,22.90
2022-08-02T06:39:46.696Z,22.50
2022-08-02T06:42:18.038Z,22.60
2022-08-02T06:44:57.841Z,23.00
2022-08-02T06:47:26.581Z,23.10
2022-08-02T06:49:54.840Z,23.70
2022-08-02T06:52:28.889Z,23.80
2022-08-02T06:54:58.813Z,24.00
2022-08-02T06:57:26.400Z,24.10
2022-08-02T06:59:54.013Z,24.50
2022-08-02T07:02:21.717Z,24.30
2022-08-02T07:04:49.062Z,24.60
2022-08-02T07:07:16.331Z,24.30
2022-08-02T07:10:00.956Z,24.70
2022-08-02T07:12:34.284Z,24.30
2022-08-02T07:15:05.585Z,24.60
2022-08-02T07:17:33.624Z,25.20
2022-08-02T07:20:01.164Z,25.10
2022-08-02T07:22:29.733Z,25.20
2022-08-02T07:24:59.260Z,25.00
2022-08-02T07:27:27.181Z,25.70
2022-08-02T07:29:54.782Z,25.90
2022-08-02T07:32:24.881Z,25.80
2022-08-02T07:34:54.159Z,25.20
2022-08-02T07:37:53.472Z,24.90
2022-08-02T07:40:15.286Z,24.70
2022-08-02T07:42:49.206Z,24.90
2022-08-02T07:45:16.419Z,25.20
2022-08-02T07:47:45.281Z,24.80
2022-08-02T07:50:14.435Z,24.60
2022-08-02T07:52:42.760Z,24.70
2022-08-02T07:55:11.269Z,24.90
2022-08-02T07:57:45.491Z,24.70
2022-08-02T08:00:14.239Z,25.00
2022-08-02T08:02:41.655Z,26.10
2022-08-02T08:05:09.454Z,25.80
2022-08-02T08:07:36.610Z,25.30
2022-08-02T08:10:06.790Z,25.40
2022-08-02T08:12:34.584Z,25.60
2022-08-02T08:15:01.987Z,25.90
2022-08-02T08:17:31.247Z,24.90
2022-08-02T08:19:58.443Z,25.10
2022-08-02T08:22:25.575Z,24.70
2022-08-02T08:24:52.708Z,25.10
2022-08-02T08:27:22.676Z,25.30
2022-08-02T08:29:50.162Z,25.50
2022-08-02T08:32:18.704Z,24.80
2022-08-02T08:34:47.356Z,24.10
2022-08-02T08:37:17.683Z,24.50
2022-08-02T08:39:56.825Z,24.60
2022-08-02T08:42:25.046Z,24.70
2022-08-02T08:44:52.331Z,24.70
2022-08-02T08:47:21.146Z,24.40
2022-08-02T08:49:53.471Z,25.00
2022-08-02T08:52:26.845Z,25.00
2022-08-02T08:54:55.704Z,24.60
2022-08-02T08:57:29.745Z,24.50
2022-08-02T08:59:57.308Z,25.10
2022-08-02T09:02:28.136Z,25.10
2022-08-02T09:04:56.043Z,24.70
2022-08-02T09:07:23.809Z,24.50
2022-08-02T09:09:50.874Z,25.50
2022-08-02T09:12:25.271Z,25.50
2022-08-02T09:14:52.726Z,24.80
2022-08-02T09:17:21.401Z,25.10
2022-08-02T09:20:07.648Z,25.30
2022-08-02T09:22:35.005Z,25.90
2022-08-02T09:25:18.560Z,26.00
2022-08-02T09:27:48.616Z,26.40
2022-08-02T09:30:17.090Z,26.40
2022-08-02T09:32:46.874Z,27.10
2022-08-02T09:35:15.555Z,26.90
2022-08-02T09:37:45.706Z,25.00
2022-08-02T09:40:15.883Z,25.10
2022-08-02T09:42:59.542Z,25.80
2022-08-02T09:45:34.881Z,27.40
2022-08-02T09:48:09.608Z,28.00
2022-08-02T09:50:38.448Z,26.90
2022-08-02T09:53:06.257Z,27.90
2022-08-02T09:55:33.513Z,28.50
2022-08-02T09:58:18.333Z,28.00
2022-08-02T10:00:55.970Z,27.80
2022-08-02T10:03:23.405Z,28.50
2022-08-02T10:06:03.015Z,28.00
2022-08-02T10:08:32.864Z,28.70
2022-08-02T10:11:02.146Z,28.80
2022-08-02T10:13:34.790Z,28.40
2022-08-02T10:16:03.330Z,28.50
2022-08-02T10:18:39.943Z,27.20
2022-08-02T10:21:15.641Z,26.00
2022-08-02T10:23:44.840Z,25.50
2022-08-02T10:26:17.373Z,26.40
2022-08-02T10:28:48.324Z,27.00
2022-08-02T10:31:20.353Z,26.00
2022-08-02T10:33:50.367Z,25.90
2022-08-02T10:36:19.518Z,28.90
2022-08-02T10:38:47.546Z,27.90
2022-08-02T10:41:14.818Z,28.40
2022-08-02T10:43:47.986Z,28.20
2022-08-02T10:46:25.688Z,28.90
2022-08-02T10:52:02.016Z,27.70
2022-08-02T10:54:35.472Z,27.40
2022-08-02T10:57:03.306Z,28.40
2022-08-02T10:59:36.332Z,29.20
2022-08-02T11:02:06.717Z,30.30
2022-08-02T11:04:39.774Z,30.00
2022-08-02T11:07:18.361Z,29.30
2022-08-02T11:09:47.200Z,30.50
2022-08-02T11:12:19.551Z,30.00
2022-08-02T11:15:04.182Z,30.00
2022-08-02T11:17:55.275Z,29.90
2022-08-02T11:20:24.531Z,30.60
2022-08-02T11:22:53.454Z,30.60
2022-08-02T11:25:24.071Z,30.70
2022-08-02T11:28:12.551Z,28.90
2022-08-02T11:30:40.100Z,29.50
2022-08-02T11:33:07.410Z,29.50
2022-08-02T11:35:39.027Z,27.20
2022-08-02T11:38:21.150Z,27.60
2022-08-02T11:40:49.591Z,27.90
2022-08-02T11:43:30.952Z,27.30
2022-08-02T11:45:59.097Z,27.30
2022-08-02T11:48:38.164Z,27.90
2022-08-02T11:51:19.124Z,27.90
2022-08-02T11:53:54.741Z,27.70
2022-08-02T11:56:35.721Z,27.00
2022-08-02T11:59:10.463Z,27.00
2022-08-02T12:01:46.154Z,27.80
2022-08-02T12:04:19.196Z,28.00
2022-08-02T12:06:54.369Z,30.70
2022-08-02T12:09:23.481Z,31.70
2022-08-02T12:11:51.310Z,32.60
2022-08-02T12:14:19.054Z,28.60
2022-08-02T12:17:06.359Z,29.10
2022-08-02T12:19:34.786Z,29.50
2022-08-02T12:22:14.490Z,29.00
2022-08-02T12:24:44.828Z,31.60
2022-08-02T12:27:37.302Z,33.20
2022-08-02T12:30:07.075Z,30.60
2022-08-02T12:32:35.150Z,33.70
2022-08-02T12:35:15.036Z,32.00
2022-08-02T12:37:54.190Z,30.60
2022-08-02T12:40:25.725Z,30.60
2022-08-02T12:43:05.085Z,32.00
2022-08-02T12:45:49.101Z,30.80
2022-08-02T12:48:36.641Z,30.90
2022-08-02T12:51:56.357Z,30.40
2022-08-02T12:54:31.755Z,31.80
2022-08-02T12:57:14.008Z,33.60
2022-08-02T12:59:44.604Z,32.90
2022-08-02T13:02:13.810Z,34.20
2022-08-02T13:04:41.687Z,35.10
2022-08-02T13:07:18.165Z,34.90
2022-08-02T13:09:46.976Z,35.70
2022-08-02T13:12:14.966Z,32.30
2022-08-02T13:14:43.001Z,33.20
2022-08-02T13:17:11.567Z,33.50
2022-08-02T13:19:39.171Z,34.40
2022-08-02T13:22:08.616Z,31.40
2022-08-02T13:24:55.185Z,31.00
2022-08-02T13:27:25.505Z,29.30
2022-08-02T13:29:54.356Z,29.10
2022-08-02T13:32:22.295Z,30.10
2022-08-02T13:34:49.808Z,30.60
2022-08-02T13:37:19.579Z,31.40
2022-08-02T13:40:05.547Z,32.50
2022-08-02T13:42:34.419Z,29.40
2022-08-02T13:45:11.708Z,28.70
2022-08-02T13:48:03.830Z,30.00
2022-08-02T13:50:30.424Z,30.10
2022-08-02T13:52:57.604Z,29.00
2022-08-02T13:55:25.152Z,28.90
2022-08-02T13:57:53.682Z,28.40
2022-08-02T14:00:35.267Z,28.00
2022-08-02T14:03:07.562Z,28.30
2022-08-02T14:05:48.174Z,29.20
2022-08-02T14:08:18.752Z,28.50
2022-08-02T14:10:50.054Z,28.10
2022-08-02T14:13:18.556Z,27.70
2022-08-02T14:15:46.198Z,28.80
2022-08-02T14:18:14.992Z,30.90
2022-08-02T14:20:43.460Z,31.50
2022-08-02T14:23:10.985Z,30.80
2022-08-02T14:25:38.646Z,31.10
2022-08-02T14:28:06.158Z,29.10
2022-08-02T14:30:33.716Z,27.50
2022-08-02T14:33:01.044Z,27.40
2022-08-02T14:35:28.151Z,27.10
2022-08-02T14:37:55.270Z,27.20
2022-08-02T14:40:27.882Z,26.50
2022-08-02T14:43:02.509Z,26.60
2022-08-02T14:45:40.991Z,26.50
2022-08-02T14:48:10.578Z,26.20
2022-08-02T14:50:37.702Z,26.20
2022-08-02T14:53:04.834Z,26.60
2022-08-02T14:55:32.006Z,26.80
2022-08-02T14:57:59.200Z,26.70
2022-08-02T15:00:26.324Z,26.60
2022-08-02T15:02:56.082Z,26.30
2022-08-02T15:05:26.695Z,26.30
2022-08-02T15:07:53.832Z,26.20
2022-08-02T15:10:21.102Z,26.10
2022-08-02T15:12:48.327Z,26.00
2022-08-02T15:15:15.508Z,26.10
2022-08-02T15:17:42.649Z,26.00
2022-08-02T15:20:24.383Z,26.10
2022-08-02T15:22:52.993Z,26.20
2022-08-02T15:25:21.294Z,26.20
2022-08-02T15:27:48.819Z,26.30
2022-08-02T15:30:16.060Z,26.30
2022-08-02T15:32:53.162Z,26.00
2022-08-02T15:35:21.164Z,26.00
2022-08-02T15:37:48.379Z,25.90
2022-08-02T15:40:15.588Z,26.00
2022-08-02T15:42:43.934Z,26.10
2022-08-02T15:45:15.828Z,26.10
2022-08-02T15:47:48.013Z,26.10
2022-08-02T15:50:18.850Z,26.20
2022-08-02T15:52:46.284Z,26.00
2022-08-02T15:55:14.465Z,26.10
2022-08-02T15:57:41.854Z,26.20
2022-08-02T16:00:18.111Z,26.10
2022-08-02T16:02:47.724Z,26.20
2022-08-02T16:05:18.219Z,26.30
2022-08-02T16:07:46.041Z,26.10
2022-08-02T16:10:13.718Z,25.90
2022-08-02T16:12:40.885Z,25.80
2022-08-02T16:15:08.646Z,25.70
2022-08-02T16:17:51.945Z,25.80
2022-08-02T16:20:22.476Z,25.80
2022-08-02T16:22:52.384Z,25.70
2022-08-02T16:25:20.898Z,25.80
2022-08-02T16:28:06.842Z,25.80
2022-08-02T16:30:35.588Z,25.80
2022-08-02T16:33:03.454Z,25.80
2022-08-02T16:35:30.722Z,25.70
2022-08-02T16:37:57.953Z,25.70
2022-08-02T16:40:25.554Z,25.70
2022-08-02T16:42:52.774Z,25.70
2022-08-02T16:45:21.403Z,25.60
2022-08-02T16:50:38.022Z,25.50
2022-08-02T16:53:07.465Z,25.50
2022-08-02T16:55:35.109Z,25.40
2022-08-02T16:58:02.350Z,25.30
2022-08-02T17:00:29.967Z,25.30
2022-08-02T17:02:59.825Z,25.20
2022-08-02T17:05:56.313Z,25.20
2022-08-02T17:08:24.577Z,25.20
2022-08-02T17:11:03.649Z,25.10
2022-08-02T17:13:34.217Z,25.10
2022-08-02T17:16:20.861Z,25.00
2022-08-02T17:18:54.146Z,25.00
2022-08-02T17:21:22.142Z,25.00
2022-08-02T17:24:05.793Z,24.90
2022-08-02T17:29:19.086Z,24.80
2022-08-02T17:32:05.528Z,24.70
2022-08-02T17:34:37.113Z,24.70
2022-08-02T17:37:05.748Z,24.50
2022-08-02T17:39:44.009Z,24.40
2022-08-02T17:42:20.408Z,24.20
2022-08-02T17:45:07.109Z,24.20
2022-08-02T17:47:43.231Z,24.10
2022-08-02T17:50:30.411Z,24.00
2022-08-02T17:52:57.794Z,24.00
2022-08-02T17:55:25.261Z,23.80
2022-08-02T17:57:57.167Z,23.70
2022-08-02T18:00:33.739Z,23.60
2022-08-02T18:03:05.897Z,23.60
2022-08-02T18:05:40.359Z,23.50
2022-08-02T18:08:24.129Z,23.40
2022-08-02T18:10:55.925Z,23.30
2022-08-02T18:13:23.707Z,23.30
2022-08-02T18:15:57.371Z,23.10
2022-08-02T18:18:30.085Z,22.90
2022-08-02T18:21:15.706Z,22.90
2022-08-02T18:23:48.799Z,22.90
2022-08-02T18:26:33.693Z,23.00
2022-08-02T18:29:03.886Z,22.90
2022-08-02T18:31:39.573Z,22.90
2022-08-02T18:34:07.836Z,22.90
2022-08-02T18:36:35.090Z,22.80
2022-08-02T18:39:08.121Z,22.80
2022-08-02T18:41:51.075Z,22.60
2022-08-02T18:44:18.799Z,22.60
2022-08-02T18:46:46.581Z,22.50
2022-08-02T18:49:16.829Z,22.40
2022-08-02T18:51:44.768Z,22.40
2022-08-02T18:54:12.186Z,22.20
2022-08-02T18:56:40.343Z,22.50
2022-08-02T18:59:14.601Z,22.30
2022-08-02T19:01:50.634Z,22.10
2022-08-02T19:04:27.426Z,22.30
2022-08-02T19:06:56.741Z,22.30
2022-08-02T19:09:34.834Z,22.30
2022-08-02T19:14:44.696Z,21.90
2022-08-02T19:17:53.365Z,21.70
2022-08-02T19:19:59.263Z,21.80
2022-08-02T19:22:27.324Z,22.10
2022-08-02T19:25:01.481Z,22.10
2022-08-02T19:27:32.574Z,22.20
2022-08-02T19:32:59.659Z,21.90
2022-08-02T19:35:34.444Z,21.80
2022-08-02T19:38:07.643Z,21.70
2022-08-02T19:40:37.089Z,21.60
2022-08-02T19:44:26.590Z,21.60
2022-08-02T19:45:56.789Z,21.60
2022-08-02T19:48:26.809Z,21.60
2022-08-02T19:53:46.718Z,22.00
2022-08-02T19:56:21.217Z,21.90
2022-08-02T19:58:54.519Z,21.70
2022-08-02T20:01:36.951Z,21.60
2022-08-02T20:04:13.401Z,21.50
2022-08-02T20:06:45.346Z,21.50
2022-08-02T20:09:16.380Z,21.40
2022-08-02T20:11:45.578Z,21.70
2022-08-02T20:14:13.536Z,21.80
2022-08-02T20:16:41.799Z,21.90
2022-08-02T20:19:09.261Z,21.80
2022-08-02T20:21:38.241Z,22.00
2022-08-02T20:24:10.987Z,22.00
2022-08-02T20:26:47.690Z,21.80
2022-08-02T20:29:43.648Z,21.70
2022-08-02T20:32:04.520Z,21.50
2022-08-02T20:34:31.865Z,21.40
2022-08-02T20:37:55.934Z,21.60
2022-08-02T20:39:48.462Z,21.40
2022-08-02T20:42:23.201Z,21.30
2022-08-02T20:44:55.508Z,21.40
2022-08-02T20:50:31.340Z,21.10
2022-08-02T20:53:00.584Z,21.20
2022-08-02T20:55:30.996Z,21.10
2022-08-02T20:58:01.793Z,21.10
2022-08-02T21:00:30.523Z,21.10
2022-08-02T21:05:54.954Z,21.00
2022-08-02T21:08:23.515Z,20.80
2022-08-02T21:10:55.318Z,20.80
2022-08-02T21:13:25.929Z,20.80
2022-08-02T21:15:59.675Z,20.90
2022-08-02T21:18:40.178Z,21.00
2022-08-02T21:21:09.959Z,21.00
2022-08-02T21:23:38.078Z,21.00
2022-08-02T21:26:09.014Z,20.80
2022-08-02T21:28:43.671Z,20.80
2022-08-02T21:31:15.876Z,20.90
2022-08-02T21:36:33.419Z,20.80
2022-08-02T21:39:09.228Z,20.90
2022-08-02T21:41:46.365Z,20.80
2022-08-02T21:44:16.485Z,20.60
2022-08-02T21:46:49.798Z,20.70
2022-08-02T21:49:40.592Z,20.50
2022-08-02T21:52:10.157Z,20.60
2022-08-02T21:54:40.336Z,20.70
2022-08-02T21:57:15.183Z,20.70
2022-08-02T21:59:45.288Z,20.80
2022-08-02T22:02:13.892Z,20.90
2022-08-02T22:04:48.115Z,20.70
2022-08-02T22:07:17.762Z,20.60
2022-08-02T22:09:51.616Z,20.60
2022-08-02T22:12:20.530Z,20.60
2022-08-02T22:17:53.092Z,20.40
2022-08-02T22:20:29.294Z,20.40
2022-08-02T22:22:56.739Z,20.60
2022-08-02T22:25:31.448Z,20.40
2022-08-02T22:28:34.750Z,20.50
2022-08-02T22:30:54.398Z,20.70
2022-08-02T22:33:42.377Z,20.90
2022-08-02T22:36:15.310Z,21.00
2022-08-02T22:38:44.650Z,21.10
2022-08-02T22:41:16.142Z,21.10
2022-08-02T22:43:43.870Z,21.00
2022-08-02T22:46:15.518Z,21.00
2022-08-02T22:48:44.674Z,20.80
2022-08-02T22:51:14.051Z,20.70
2022-08-02T22:53:43.201Z,20.70
2022-08-02T22:56:11.786Z,20.60
2022-08-02T22:58:50.792Z,25.60
2022-08-02T22:58:56.233Z,21.20
2022-08-02T22:59:03.015Z,20.90
2022-08-02T22:59:05.991Z,21.70
2022-08-02T22:59:07.157Z,21.20
2022-08-02T22:59:10.807Z,20.60
2022-08-02T23:01:26.465Z,20.40
2022-08-02T23:03:53.761Z,20.40
2022-08-02T23:06:22.666Z,20.20
2022-08-02T23:08:52.034Z,20.20
2022-08-02T23:11:20.444Z,20.60
2022-08-02T23:13:47.781Z,20.60
2022-08-02T23:16:38.264Z,20.60
2022-08-02T23:19:24.713Z,20.30
2022-08-02T23:22:01.654Z,20.00
2022-08-02T23:24:33.194Z,19.70
2022-08-02T23:27:01.359Z,19.60
2022-08-02T23:29:28.589Z,19.70
2022-08-02T23:31:55.833Z,19.90
2022-08-02T23:34:23.004Z,20.10
2022-08-02T23:36:50.084Z,20.10
2022-08-02T23:39:17.213Z,20.30
2022-08-02T23:41:44.488Z,20.10
2022-08-02T23:44:17.536Z,20.20
2022-08-02T23:46:46.370Z,20.10
2022-08-02T23:49:14.654Z,20.30
2022-08-02T23:51:42.163Z,20.40
2022-08-02T23:54:10.082Z,20.40
2022-08-02T23:56:39.245Z,20.60
2022-08-02T23:59:09.653Z,20.60
